Lenora, Kansas
Current Conditions -  °F | °C
As of 8:53 AM on Wednesday 22 Oct 2014 (Local Time) from KHLC Reporting Station
Clear Clear  
Wind Chill: 16°   Ceiling: Unl
Heat Index: 16°   Visibility: 10mi
Dew Point: 11°   Wind: 10mph
Humidity: 72%   Direction: 170°S
Pressure: 29.99"   Gusts: NA
Location:  39.61°N, 100°W
Report Text: KHLC 221353Z AUTO 17009KT 10SM CLR 16/11 A2999 RMK AO2 SLP141 T01610111
Loading
Personal Weather Stations






























Interactive Weather Map
Tropical Storm Tracking
New forecast layout! Learn more

10-Day Weather Forecast

Advertisements
Track Severe Weather on mobile